sensor_id;sensor_type;location;lat;lon;timestamp;pressure;altitude;pressure_sealevel;temperature;humidity
4858;BME280;58975;51.978;8.472;2022-12-22T00:04:18;99320.50;;;6.66;100.00
4858;BME280;58975;51.978;8.472;2022-12-22T00:09:32;99304.50;;;6.68;100.00
4858;BME280;58975;51.978;8.472;2022-12-22T00:14:47;99294.44;;;6.62;100.00
4858;BME280;58975;51.978;8.472;2022-12-22T00:20:10;99284.44;;;6.65;100.00
4858;BME280;58975;51.978;8.472;2022-12-22T00:25:25;99280.38;;;6.61;100.00
4858;BME280;58975;51.978;8.472;2022-12-22T00:30:40;99281.81;;;6.65;100.00
4858;BME280;58975;51.978;8.472;2022-12-22T00:35:55;99276.13;;;6.70;100.00
4858;BME280;58975;51.978;8.472;2022-12-22T00:41:10;99265.03;;;6.76;100.00
4858;BME280;58975;51.978;8.472;2022-12-22T00:46:25;99276.47;;;6.77;100.00
4858;BME280;58975;51.978;8.472;2022-12-22T00:51:41;99272.72;;;6.79;100.00
4858;BME280;58975;51.978;8.472;2022-12-22T00:56:58;99273.94;;;6.75;100.00
4858;BME280;58975;51.978;8.472;2022-12-22T01:02:13;99279.16;;;6.86;100.00
4858;BME280;58975;51.978;8.472;2022-12-22T01:07:29;99275.06;;;6.93;100.00
4858;BME280;58975;51.978;8.472;2022-12-22T01:12:44;99278.03;;;7.00;100.00
4858;BME280;58975;51.978;8.472;2022-12-22T01:17:59;99253.84;;;7.04;100.00
4858;BME280;58975;51.978;8.472;2022-12-22T01:23:14;99244.41;;;7.11;100.00
4858;BME280;58975;51.978;8.472;2022-12-22T01:28:29;99236.91;;;6.96;100.00
4858;BME280;58975;51.978;8.472;2022-12-22T01:33:45;99232.00;;;6.91;100.00
4858;BME280;58975;51.978;8.472;2022-12-22T01:39:00;99233.94;;;6.89;100.00
4858;BME280;58975;51.978;8.472;2022-12-22T01:44:16;99225.47;;;6.95;100.00
4858;BME280;58975;51.978;8.472;2022-12-22T01:49:42;99225.19;;;7.09;100.00
4858;BME280;58975;51.978;8.472;2022-12-22T01:55:02;99224.72;;;7.04;100.00
4858;BME280;58975;51.978;8.472;2022-12-22T02:00:19;99220.13;;;7.06;100.00
4858;BME280;58975;51.978;8.472;2022-12-22T02:05:39;99213.31;;;7.13;100.00
4858;BME280;58975;51.978;8.472;2022-12-22T02:16:38;99202.72;;;7.34;100.00
4858;BME280;58975;51.978;8.472;2022-12-22T02:22:12;99185.84;;;7.35;100.00
4858;BME280;58975;51.978;8.472;2022-12-22T02:27:32;99177.63;;;7.29;100.00
4858;BME280;58975;51.978;8.472;2022-12-22T02:32:48;99168.44;;;7.33;100.00
4858;BME280;58975;51.978;8.472;2022-12-22T02:38:27;99156.16;;;7.32;100.00
4858;BME280;58975;51.978;8.472;2022-12-22T02:49:39;99134.41;;;7.28;100.00
4858;BME280;58975;51.978;8.472;2022-12-22T02:54:55;99136.06;;;7.29;100.00
4858;BME280;58975;51.978;8.472;2022-12-22T03:00:11;99139.69;;;7.28;100.00
4858;BME280;58975;51.978;8.472;2022-12-22T03:05:26;99138.06;;;7.37;100.00
4858;BME280;58975;51.978;8.472;2022-12-22T03:10:42;99123.84;;;7.38;100.00
4858;BME280;58975;51.978;8.472;2022-12-22T03:15:57;99106.25;;;7.27;100.00
4858;BME280;58975;51.978;8.472;2022-12-22T03:21:11;99099.25;;;7.26;100.00
4858;BME280;58975;51.978;8.472;2022-12-22T03:26:27;99096.50;;;7.28;100.00
4858;BME280;58975;51.978;8.472;2022-12-22T03:31:24;99089.84;;;7.43;100.00
4858;BME280;58975;51.978;8.472;2022-12-22T03:36:20;99084.09;;;7.28;100.00
4858;BME280;58975;51.978;8.472;2022-12-22T03:41:17;99084.50;;;7.24;100.00
4858;BME280;58975;51.978;8.472;2022-12-22T03:46:32;99067.66;;;7.25;100.00
4858;BME280;58975;51.978;8.472;2022-12-22T03:51:28;99061.06;;;7.19;100.00
4858;BME280;58975;51.978;8.472;2022-12-22T03:56:25;99063.44;;;7.22;100.00
4858;BME280;58975;51.978;8.472;2022-12-22T04:01:21;99067.09;;;7.31;100.00
4858;BME280;58975;51.978;8.472;2022-12-22T04:06:18;99049.00;;;7.36;100.00
4858;BME280;58975;51.978;8.472;2022-12-22T04:11:15;99041.84;;;7.27;100.00
4858;BME280;58975;51.978;8.472;2022-12-22T04:16:31;99038.41;;;7.45;100.00
4858;BME280;58975;51.978;8.472;2022-12-22T04:21:27;99025.31;;;7.44;100.00
4858;BME280;58975;51.978;8.472;2022-12-22T04:26:24;99017.91;;;7.38;100.00
4858;BME280;58975;51.978;8.472;2022-12-22T04:31:22;99012.34;;;7.41;100.00
4858;BME280;58975;51.978;8.472;2022-12-22T04:36:18;99010.38;;;7.43;100.00
4858;BME280;58975;51.978;8.472;2022-12-22T04:41:15;99016.81;;;7.50;100.00
4858;BME280;58975;51.978;8.472;2022-12-22T04:46:11;99004.13;;;7.44;100.00
4858;BME280;58975;51.978;8.472;2022-12-22T04:51:08;98993.81;;;7.41;100.00
4858;BME280;58975;51.978;8.472;2022-12-22T04:56:06;98986.66;;;7.41;100.00
4858;BME280;58975;51.978;8.472;2022-12-22T05:01:11;98976.63;;;7.45;100.00
4858;BME280;58975;51.978;8.472;2022-12-22T05:06:08;98965.78;;;7.48;100.00
4858;BME280;58975;51.978;8.472;2022-12-22T05:11:05;98963.16;;;7.48;100.00
4858;BME280;58975;51.978;8.472;2022-12-22T05:16:09;98961.34;;;7.48;100.00
4858;BME280;58975;51.978;8.472;2022-12-22T05:21:10;98955.44;;;7.45;100.00
4858;BME280;58975;51.978;8.472;2022-12-22T05:26:07;98954.34;;;7.47;100.00
4858;BME280;58975;51.978;8.472;2022-12-22T05:31:05;98958.25;;;7.53;100.00
4858;BME280;58975;51.978;8.472;2022-12-22T05:36:03;98951.56;;;7.49;100.00
4858;BME280;58975;51.978;8.472;2022-12-22T05:40:59;98947.66;;;7.53;100.00
4858;BME280;58975;51.978;8.472;2022-12-22T05:46:08;98941.94;;;7.48;100.00
4858;BME280;58975;51.978;8.472;2022-12-22T05:51:06;98939.56;;;7.45;100.00
4858;BME280;58975;51.978;8.472;2022-12-22T05:56:03;98938.47;;;7.47;100.00
4858;BME280;58975;51.978;8.472;2022-12-22T06:01:00;98933.28;;;7.46;100.00
4858;BME280;58975;51.978;8.472;2022-12-22T06:05:57;98922.00;;;7.53;100.00
4858;BME280;58975;51.978;8.472;2022-12-22T06:10:55;98934.00;;;7.48;100.00
4858;BME280;58975;51.978;8.472;2022-12-22T06:15:52;98924.81;;;7.52;100.00
4858;BME280;58975;51.978;8.472;2022-12-22T06:20:52;98913.63;;;7.58;100.00
4858;BME280;58975;51.978;8.472;2022-12-22T06:26:00;98909.16;;;7.49;100.00
4858;BME280;58975;51.978;8.472;2022-12-22T06:30:56;98912.81;;;7.48;100.00
4858;BME280;58975;51.978;8.472;2022-12-22T06:35:53;98911.41;;;7.63;100.00
4858;BME280;58975;51.978;8.472;2022-12-22T06:40:54;98911.69;;;7.50;100.00
4858;BME280;58975;51.978;8.472;2022-12-22T06:45:51;98912.81;;;7.48;100.00
4858;BME280;58975;51.978;8.472;2022-12-22T06:50:48;98910.00;;;7.49;100.00
4858;BME280;58975;51.978;8.472;2022-12-22T06:55:44;98920.47;;;7.51;100.00
4858;BME280;58975;51.978;8.472;2022-12-22T07:00:41;98916.84;;;7.52;100.00
4858;BME280;58975;51.978;8.472;2022-12-22T07:05:38;98925.66;;;7.52;100.00
4858;BME280;58975;51.978;8.472;2022-12-22T07:10:35;98923.81;;;7.53;100.00
4858;BME280;58975;51.978;8.472;2022-12-22T07:15:50;98924.81;;;7.52;100.00
4858;BME280;58975;51.978;8.472;2022-12-22T07:20:56;98929.53;;;7.58;100.00
4858;BME280;58975;51.978;8.472;2022-12-22T07:25:52;98926.44;;;7.53;100.00
4858;BME280;58975;51.978;8.472;2022-12-22T07:30:50;98930.94;;;7.52;100.00
4858;BME280;58975;51.978;8.472;2022-12-22T07:35:47;98935.97;;;7.55;100.00
4858;BME280;58975;51.978;8.472;2022-12-22T07:40:43;98939.00;;;7.70;100.00
4858;BME280;58975;51.978;8.472;2022-12-22T07:45:47;98943.75;;;7.57;100.00
4858;BME280;58975;51.978;8.472;2022-12-22T07:50:43;98950.88;;;7.66;100.00
4858;BME280;58975;51.978;8.472;2022-12-22T07:55:39;98958.25;;;7.72;100.00
4858;BME280;58975;51.978;8.472;2022-12-22T08:00:35;98952.13;;;7.72;100.00
4858;BME280;58975;51.978;8.472;2022-12-22T08:05:32;98966.47;;;7.69;100.00
4858;BME280;58975;51.978;8.472;2022-12-22T08:10:28;98966.91;;;7.74;100.00
4858;BME280;58975;51.978;8.472;2022-12-22T08:15:24;98974.41;;;7.69;100.00
4858;BME280;58975;51.978;8.472;2022-12-22T08:20:21;98977.22;;;7.68;100.00
4858;BME280;58975;51.978;8.472;2022-12-22T08:25:17;98984.34;;;7.67;100.00
4858;BME280;58975;51.978;8.472;2022-12-22T08:30:14;98992.28;;;7.67;100.00
4858;BME280;58975;51.978;8.472;2022-12-22T08:35:10;98993.09;;;7.77;100.00
4858;BME280;58975;51.978;8.472;2022-12-22T08:40:14;98988.09;;;7.74;100.00
4858;BME280;58975;51.978;8.472;2022-12-22T08:45:11;98982.78;;;7.74;100.00
4858;BME280;58975;51.978;8.472;2022-12-22T08:50:08;99005.38;;;7.69;100.00
4858;BME280;58975;51.978;8.472;2022-12-22T08:55:05;99015.16;;;7.68;100.00
4858;BME280;58975;51.978;8.472;2022-12-22T09:00:04;99026.16;;;7.73;100.00
4858;BME280;58975;51.978;8.472;2022-12-22T09:05:01;99039.97;;;7.77;100.00
4858;BME280;58975;51.978;8.472;2022-12-22T09:09:57;99050.56;;;7.77;100.00
4858;BME280;58975;51.978;8.472;2022-12-22T09:14:54;99061.44;;;7.74;100.00
4858;BME280;58975;51.978;8.472;2022-12-22T09:19:50;99065.91;;;7.73;100.00
4858;BME280;58975;51.978;8.472;2022-12-22T09:24:47;99071.94;;;7.75;100.00
4858;BME280;58975;51.978;8.472;2022-12-22T09:29:43;99076.50;;;7.73;100.00
4858;BME280;58975;51.978;8.472;2022-12-22T09:34:39;99078.47;;;7.71;100.00
4858;BME280;58975;51.978;8.472;2022-12-22T09:39:35;99088.34;;;7.69;100.00
4858;BME280;58975;51.978;8.472;2022-12-22T09:44:33;99099.69;;;7.71;100.00
4858;BME280;58975;51.978;8.472;2022-12-22T09:49:33;99108.31;;;7.73;100.00
4858;BME280;58975;51.978;8.472;2022-12-22T09:54:29;99119.63;;;7.75;100.00
4858;BME280;58975;51.978;8.472;2022-12-22T09:59:27;99123.97;;;7.76;100.00
4858;BME280;58975;51.978;8.472;2022-12-22T10:04:44;99132.88;;;7.75;100.00
4858;BME280;58975;51.978;8.472;2022-12-22T10:09:44;99137.91;;;7.78;100.00
4858;BME280;58975;51.978;8.472;2022-12-22T10:14:47;99149.75;;;7.74;100.00
4858;BME280;58975;51.978;8.472;2022-12-22T10:19:45;99166.59;;;7.73;100.00
4858;BME280;58975;51.978;8.472;2022-12-22T10:24:42;99166.88;;;7.70;100.00
4858;BME280;58975;51.978;8.472;2022-12-22T10:29:38;99179.56;;;7.67;100.00
4858;BME280;58975;51.978;8.472;2022-12-22T10:34:35;99174.72;;;7.72;100.00
4858;BME280;58975;51.978;8.472;2022-12-22T10:39:35;99184.31;;;7.73;100.00
4858;BME280;58975;51.978;8.472;2022-12-22T10:44:35;99212.38;;;7.75;100.00
4858;BME280;58975;51.978;8.472;2022-12-22T10:49:35;99216.84;;;7.75;100.00
4858;BME280;58975;51.978;8.472;2022-12-22T10:54:33;99231.06;;;7.74;100.00
4858;BME280;58975;51.978;8.472;2022-12-22T10:59:47;99242.50;;;7.74;100.00
4858;BME280;58975;51.978;8.472;2022-12-22T11:04:43;99253.81;;;7.76;100.00
4858;BME280;58975;51.978;8.472;2022-12-22T11:09:40;99267.31;;;7.73;100.00
4858;BME280;58975;51.978;8.472;2022-12-22T11:14:59;99280.44;;;7.75;100.00
4858;BME280;58975;51.978;8.472;2022-12-22T11:20:28;99274.56;;;7.71;100.00
4858;BME280;58975;51.978;8.472;2022-12-22T11:25:46;99292.41;;;7.69;100.00
4858;BME280;58975;51.978;8.472;2022-12-22T11:31:09;99295.50;;;7.74;100.00
4858;BME280;58975;51.978;8.472;2022-12-22T11:36:32;99299.75;;;7.86;100.00
4858;BME280;58975;51.978;8.472;2022-12-22T11:42:23;99308.16;;;7.91;100.00
4858;BME280;58975;51.978;8.472;2022-12-22T11:47:02;99309.41;;;7.97;100.00
4858;BME280;58975;51.978;8.472;2022-12-22T11:57:25;99302.03;;;8.00;100.00
4858;BME280;58975;51.978;8.472;2022-12-22T12:02:48;99298.69;;;8.08;100.00
4858;BME280;58975;51.978;8.472;2022-12-22T12:07:55;99302.53;;;8.25;100.00
4858;BME280;58975;51.978;8.472;2022-12-22T12:28:53;99323.84;;;8.14;100.00
4858;BME280;58975;51.978;8.472;2022-12-22T12:33:57;99331.34;;;8.08;100.00
4858;BME280;58975;51.978;8.472;2022-12-22T12:44:14;99312.16;;;8.26;100.00
4858;BME280;58975;51.978;8.472;2022-12-22T13:10:06;99263.03;;;7.82;100.00
4858;BME280;58975;51.978;8.472;2022-12-22T13:15:27;99255.28;;;7.69;100.00
4858;BME280;58975;51.978;8.472;2022-12-22T13:20:28;99251.97;;;7.67;100.00
4858;BME280;58975;51.978;8.472;2022-12-22T13:25:47;99261.50;;;7.79;100.00
4858;BME280;58975;51.978;8.472;2022-12-22T13:30:50;99257.34;;;7.86;100.00
4858;BME280;58975;51.978;8.472;2022-12-22T13:35:49;99265.00;;;7.89;100.00
4858;BME280;58975;51.978;8.472;2022-12-22T13:40:54;99269.00;;;7.74;100.00
4858;BME280;58975;51.978;8.472;2022-12-22T13:45:53;99268.44;;;7.71;100.00
4858;BME280;58975;51.978;8.472;2022-12-22T13:50:56;99274.28;;;7.74;100.00
4858;BME280;58975;51.978;8.472;2022-12-22T13:55:53;99281.28;;;7.75;100.00
4858;BME280;58975;51.978;8.472;2022-12-22T14:01:13;99279.31;;;7.77;100.00
4858;BME280;58975;51.978;8.472;2022-12-22T14:06:19;99268.72;;;7.77;100.00
4858;BME280;58975;51.978;8.472;2022-12-22T14:11:16;99276.25;;;7.72;100.00
4858;BME280;58975;51.978;8.472;2022-12-22T14:16:13;99284.72;;;7.66;100.00
4858;BME280;58975;51.978;8.472;2022-12-22T14:21:11;99295.84;;;7.60;100.00
4858;BME280;58975;51.978;8.472;2022-12-22T14:26:13;99313.50;;;7.50;100.00
4858;BME280;58975;51.978;8.472;2022-12-22T14:31:12;99320.41;;;7.41;100.00
4858;BME280;58975;51.978;8.472;2022-12-22T14:41:23;99319.69;;;7.19;100.00
4858;BME280;58975;51.978;8.472;2022-12-22T14:46:41;99325.25;;;7.16;100.00
4858;BME280;58975;51.978;8.472;2022-12-22T14:51:37;99327.09;;;7.04;100.00
4858;BME280;58975;51.978;8.472;2022-12-22T14:56:34;99328.84;;;6.94;100.00
4858;BME280;58975;51.978;8.472;2022-12-22T15:01:30;99336.81;;;6.83;100.00
4858;BME280;58975;51.978;8.472;2022-12-22T15:11:23;99330.97;;;6.68;100.00
4858;BME280;58975;51.978;8.472;2022-12-22T15:16:20;99332.44;;;6.61;100.00
4858;BME280;58975;51.978;8.472;2022-12-22T15:21:18;99332.22;;;6.53;100.00
4858;BME280;58975;51.978;8.472;2022-12-22T15:26:16;99339.31;;;6.52;100.00
4858;BME280;58975;51.978;8.472;2022-12-22T15:31:14;99342.56;;;6.45;100.00
4858;BME280;58975;51.978;8.472;2022-12-22T15:36:12;99337.75;;;6.50;100.00
4858;BME280;58975;51.978;8.472;2022-12-22T15:41:09;99333.66;;;6.57;100.00
4858;BME280;58975;51.978;8.472;2022-12-22T15:46:05;99342.53;;;6.56;100.00
4858;BME280;58975;51.978;8.472;2022-12-22T15:51:04;99337.72;;;6.61;100.00
4858;BME280;58975;51.978;8.472;2022-12-22T15:56:02;99341.25;;;6.50;100.00
4858;BME280;58975;51.978;8.472;2022-12-22T16:00:59;99337.31;;;6.34;100.00
4858;BME280;58975;51.978;8.472;2022-12-22T16:05:56;99332.66;;;6.15;100.00
4858;BME280;58975;51.978;8.472;2022-12-22T16:10:53;99331.56;;;6.06;100.00
4858;BME280;58975;51.978;8.472;2022-12-22T16:15:49;99320.94;;;5.84;100.00
4858;BME280;58975;51.978;8.472;2022-12-22T16:20:46;99315.66;;;5.73;100.00
4858;BME280;58975;51.978;8.472;2022-12-22T16:25:44;99313.38;;;5.68;100.00
4858;BME280;58975;51.978;8.472;2022-12-22T16:30:41;99312.19;;;5.84;100.00
4858;BME280;58975;51.978;8.472;2022-12-22T16:35:38;99305.09;;;5.73;100.00
4858;BME280;58975;51.978;8.472;2022-12-22T16:40:41;99297.66;;;5.56;100.00
4858;BME280;58975;51.978;8.472;2022-12-22T16:45:44;99291.19;;;5.60;100.00
4858;BME280;58975;51.978;8.472;2022-12-22T16:50:44;99287.78;;;5.58;100.00
4858;BME280;58975;51.978;8.472;2022-12-22T16:55:41;99269.66;;;5.53;100.00
4858;BME280;58975;51.978;8.472;2022-12-22T17:00:39;99266.31;;;5.62;100.00
4858;BME280;58975;51.978;8.472;2022-12-22T17:05:45;99269.56;;;5.55;100.00
4858;BME280;58975;51.978;8.472;2022-12-22T17:10:43;99255.16;;;5.59;100.00
4858;BME280;58975;51.978;8.472;2022-12-22T17:15:39;99258.16;;;5.54;100.00
4858;BME280;58975;51.978;8.472;2022-12-22T17:20:35;99253.47;;;5.58;100.00
4858;BME280;58975;51.978;8.472;2022-12-22T17:25:32;99251.31;;;5.63;100.00
4858;BME280;58975;51.978;8.472;2022-12-22T17:30:29;99254.19;;;5.60;100.00
4858;BME280;58975;51.978;8.472;2022-12-22T17:35:25;99237.75;;;5.67;100.00
4858;BME280;58975;51.978;8.472;2022-12-22T17:40:27;99261.97;;;5.72;100.00
4858;BME280;58975;51.978;8.472;2022-12-22T17:45:26;99251.81;;;5.90;100.00
4858;BME280;58975;51.978;8.472;2022-12-22T17:50:22;99243.88;;;5.90;100.00
4858;BME280;58975;51.978;8.472;2022-12-22T17:55:21;99232.72;;;5.87;100.00
4858;BME280;58975;51.978;8.472;2022-12-22T18:00:38;99225.22;;;5.81;100.00
4858;BME280;58975;51.978;8.472;2022-12-22T18:05:39;99221.41;;;5.73;100.00
4858;BME280;58975;51.978;8.472;2022-12-22T18:10:37;99222.03;;;5.99;100.00
4858;BME280;58975;51.978;8.472;2022-12-22T18:15:34;99212.13;;;6.12;100.00
4858;BME280;58975;51.978;8.472;2022-12-22T18:20:31;99211.75;;;6.17;100.00
4858;BME280;58975;51.978;8.472;2022-12-22T18:25:29;99211.19;;;6.02;100.00
4858;BME280;58975;51.978;8.472;2022-12-22T18:30:28;99195.31;;;6.13;100.00
4858;BME280;58975;51.978;8.472;2022-12-22T18:35:26;99196.78;;;6.06;100.00
4858;BME280;58975;51.978;8.472;2022-12-22T18:40:29;99190.72;;;6.27;100.00
4858;BME280;58975;51.978;8.472;2022-12-22T18:45:29;99181.00;;;6.16;100.00
4858;BME280;58975;51.978;8.472;2022-12-22T18:50:27;99172.06;;;6.28;100.00
4858;BME280;58975;51.978;8.472;2022-12-22T18:55:25;99158.41;;;6.12;100.00
4858;BME280;58975;51.978;8.472;2022-12-22T19:00:30;99158.78;;;6.18;100.00
4858;BME280;58975;51.978;8.472;2022-12-22T19:05:31;99153.53;;;6.28;100.00
4858;BME280;58975;51.978;8.472;2022-12-22T19:15:31;99143.56;;;6.32;100.00
4858;BME280;58975;51.978;8.472;2022-12-22T19:20:31;99125.84;;;6.23;100.00
4858;BME280;58975;51.978;8.472;2022-12-22T19:25:29;99126.78;;;6.22;100.00
4858;BME280;58975;51.978;8.472;2022-12-22T19:30:27;99115.06;;;6.14;100.00
4858;BME280;58975;51.978;8.472;2022-12-22T19:35:24;99109.75;;;6.14;100.00
4858;BME280;58975;51.978;8.472;2022-12-22T19:40:23;99097.75;;;6.10;100.00
4858;BME280;58975;51.978;8.472;2022-12-22T19:45:28;99098.25;;;6.04;100.00
4858;BME280;58975;51.978;8.472;2022-12-22T19:50:27;99089.94;;;6.09;100.00
4858;BME280;58975;51.978;8.472;2022-12-22T19:55:26;99085.81;;;6.16;100.00
4858;BME280;58975;51.978;8.472;2022-12-22T20:00:25;99077.47;;;6.11;100.00
4858;BME280;58975;51.978;8.472;2022-12-22T20:10:19;99071.28;;;6.22;100.00
4858;BME280;58975;51.978;8.472;2022-12-22T20:15:21;99074.56;;;6.35;100.00
4858;BME280;58975;51.978;8.472;2022-12-22T20:20:37;99061.94;;;6.38;100.00
4858;BME280;58975;51.978;8.472;2022-12-22T20:25:42;99055.06;;;6.36;100.00
4858;BME280;58975;51.978;8.472;2022-12-22T20:30:40;99054.00;;;6.38;100.00
4858;BME280;58975;51.978;8.472;2022-12-22T20:35:37;99048.19;;;6.44;100.00
4858;BME280;58975;51.978;8.472;2022-12-22T20:40:33;99055.06;;;6.56;100.00
4858;BME280;58975;51.978;8.472;2022-12-22T20:45:30;99043.81;;;6.54;100.00
4858;BME280;58975;51.978;8.472;2022-12-22T20:50:29;99036.94;;;6.52;100.00
4858;BME280;58975;51.978;8.472;2022-12-22T20:55:27;99034.94;;;6.65;100.00
4858;BME280;58975;51.978;8.472;2022-12-22T21:00:26;99036.06;;;6.72;100.00
4858;BME280;58975;51.978;8.472;2022-12-22T21:05:22;99033.16;;;6.75;100.00
4858;BME280;58975;51.978;8.472;2022-12-22T21:10:21;99032.75;;;6.70;100.00
4858;BME280;58975;51.978;8.472;2022-12-22T21:15:24;99033.81;;;6.68;100.00
4858;BME280;58975;51.978;8.472;2022-12-22T21:20:25;99031.81;;;6.81;100.00
4858;BME280;58975;51.978;8.472;2022-12-22T21:25:23;99027.47;;;6.80;100.00
4858;BME280;58975;51.978;8.472;2022-12-22T21:30:25;99027.75;;;6.77;100.00
4858;BME280;58975;51.978;8.472;2022-12-22T21:35:30;99019.69;;;6.78;100.00
4858;BME280;58975;51.978;8.472;2022-12-22T21:40:31;99016.41;;;6.95;100.00
4858;BME280;58975;51.978;8.472;2022-12-22T21:45:29;99014.75;;;7.04;100.00
4858;BME280;58975;51.978;8.472;2022-12-22T21:50:31;99012.78;;;6.96;100.00
4858;BME280;58975;51.978;8.472;2022-12-22T21:55:36;99013.06;;;6.93;100.00
4858;BME280;58975;51.978;8.472;2022-12-22T22:00:33;99007.78;;;6.93;100.00
4858;BME280;58975;51.978;8.472;2022-12-22T22:05:31;99000.25;;;6.98;100.00
4858;BME280;58975;51.978;8.472;2022-12-22T22:10:31;98995.00;;;7.08;100.00
4858;BME280;58975;51.978;8.472;2022-12-22T22:15:29;98988.16;;;7.15;100.00
4858;BME280;58975;51.978;8.472;2022-12-22T22:20:30;98998.50;;;7.28;100.00
4858;BME280;58975;51.978;8.472;2022-12-22T22:25:27;98995.88;;;7.37;100.00
4858;BME280;58975;51.978;8.472;2022-12-22T22:30:24;98993.41;;;7.55;100.00
4858;BME280;58975;51.978;8.472;2022-12-22T22:35:22;98997.59;;;7.67;100.00
4858;BME280;58975;51.978;8.472;2022-12-22T22:40:20;99004.13;;;7.73;100.00
4858;BME280;58975;51.978;8.472;2022-12-22T22:45:17;99008.72;;;7.80;100.00
4858;BME280;58975;51.978;8.472;2022-12-22T22:50:19;99005.38;;;7.78;100.00
4858;BME280;58975;51.978;8.472;2022-12-22T22:55:16;99009.88;;;7.87;100.00
4858;BME280;58975;51.978;8.472;2022-12-22T23:00:14;99012.09;;;7.92;100.00
4858;BME280;58975;51.978;8.472;2022-12-22T23:05:11;99011.50;;;7.88;100.00
4858;BME280;58975;51.978;8.472;2022-12-22T23:10:17;99007.59;;;7.92;100.00
4858;BME280;58975;51.978;8.472;2022-12-22T23:15:13;99010.25;;;7.92;100.00
4858;BME280;58975;51.978;8.472;2022-12-22T23:20:10;99011.41;;;7.99;100.00
4858;BME280;58975;51.978;8.472;2022-12-22T23:25:06;99012.50;;;7.97;100.00
4858;BME280;58975;51.978;8.472;2022-12-22T23:30:03;99013.75;;;8.02;100.00
4858;BME280;58975;51.978;8.472;2022-12-22T23:35:00;99014.72;;;8.11;100.00
4858;BME280;58975;51.978;8.472;2022-12-22T23:39:56;99019.31;;;8.09;100.00
4858;BME280;58975;51.978;8.472;2022-12-22T23:45:12;99023.38;;;8.13;100.00
4858;BME280;58975;51.978;8.472;2022-12-22T23:50:09;99031.88;;;8.17;100.00
4858;BME280;58975;51.978;8.472;2022-12-22T23:55:05;99030.78;;;8.19;100.00
